sensor_id;sensor_type;location;lat;lon;timestamp;temperature;humidity
6443;DHT22;3254;47.372;8.512;2023-05-15T00:01:26;9.80;99.90
6443;DHT22;3254;47.372;8.512;2023-05-15T00:03:51;9.80;99.90
6443;DHT22;3254;47.372;8.512;2023-05-15T00:06:17;9.80;99.90
6443;DHT22;3254;47.372;8.512;2023-05-15T00:08:43;9.90;99.90
6443;DHT22;3254;47.372;8.512;2023-05-15T00:11:09;9.90;99.90
6443;DHT22;3254;47.372;8.512;2023-05-15T00:13:35;9.90;99.90
6443;DHT22;3254;47.372;8.512;2023-05-15T00:16:06;9.90;99.90
6443;DHT22;3254;47.372;8.512;2023-05-15T00:18:32;9.90;99.90
6443;DHT22;3254;47.372;8.512;2023-05-15T00:20:57;10.00;99.90
6443;DHT22;3254;47.372;8.512;2023-05-15T00:23:23;9.90;99.90
6443;DHT22;3254;47.372;8.512;2023-05-15T00:25:49;10.00;99.90
6443;DHT22;3254;47.372;8.512;2023-05-15T00:28:14;10.00;99.90
6443;DHT22;3254;47.372;8.512;2023-05-15T00:30:40;10.00;99.90
6443;DHT22;3254;47.372;8.512;2023-05-15T00:33:06;10.00;99.90
6443;DHT22;3254;47.372;8.512;2023-05-15T00:35:32;10.00;99.90
6443;DHT22;3254;47.372;8.512;2023-05-15T00:37:57;10.00;99.90
6443;DHT22;3254;47.372;8.512;2023-05-15T00:40:24;10.00;99.90
6443;DHT22;3254;47.372;8.512;2023-05-15T00:42:51;10.00;99.90
6443;DHT22;3254;47.372;8.512;2023-05-15T00:45:18;10.00;99.90
6443;DHT22;3254;47.372;8.512;2023-05-15T00:47:44;10.00;99.90
6443;DHT22;3254;47.372;8.512;2023-05-15T00:50:11;10.00;99.90
6443;DHT22;3254;47.372;8.512;2023-05-15T00:52:36;10.00;99.90
6443;DHT22;3254;47.372;8.512;2023-05-15T00:55:03;10.10;99.90
6443;DHT22;3254;47.372;8.512;2023-05-15T00:57:30;10.10;99.90
6443;DHT22;3254;47.372;8.512;2023-05-15T00:59:56;10.10;99.90
6443;DHT22;3254;47.372;8.512;2023-05-15T01:02:22;10.10;99.90
6443;DHT22;3254;47.372;8.512;2023-05-15T01:04:48;10.10;99.90
6443;DHT22;3254;47.372;8.512;2023-05-15T01:07:14;10.10;99.90
6443;DHT22;3254;47.372;8.512;2023-05-15T01:09:41;10.10;99.90
6443;DHT22;3254;47.372;8.512;2023-05-15T01:12:09;10.10;99.90
6443;DHT22;3254;47.372;8.512;2023-05-15T01:14:35;10.10;99.90
6443;DHT22;3254;47.372;8.512;2023-05-15T01:17:01;10.10;99.90
6443;DHT22;3254;47.372;8.512;2023-05-15T01:19:27;10.20;99.90
6443;DHT22;3254;47.372;8.512;2023-05-15T01:25:15;10.30;99.90
6443;DHT22;3254;47.372;8.512;2023-05-15T01:27:50;10.30;99.90
6443;DHT22;3254;47.372;8.512;2023-05-15T01:30:28;10.30;99.90
6443;DHT22;3254;47.372;8.512;2023-05-15T01:33:23;10.40;99.90
6443;DHT22;3254;47.372;8.512;2023-05-15T01:36:15;10.40;99.90
6443;DHT22;3254;47.372;8.512;2023-05-15T01:38:52;10.30;99.90
6443;DHT22;3254;47.372;8.512;2023-05-15T01:43:55;10.50;99.90
6443;DHT22;3254;47.372;8.512;2023-05-15T01:46:22;10.50;99.90
6443;DHT22;3254;47.372;8.512;2023-05-15T01:48:48;10.40;99.90
6443;DHT22;3254;47.372;8.512;2023-05-15T01:51:15;10.40;99.90
6443;DHT22;3254;47.372;8.512;2023-05-15T01:53:43;10.50;99.90
6443;DHT22;3254;47.372;8.512;2023-05-15T01:56:13;10.40;99.90
6443;DHT22;3254;47.372;8.512;2023-05-15T01:58:40;10.50;99.90
6443;DHT22;3254;47.372;8.512;2023-05-15T02:01:07;10.40;99.90
6443;DHT22;3254;47.372;8.512;2023-05-15T02:03:33;10.40;99.90
6443;DHT22;3254;47.372;8.512;2023-05-15T02:06:01;10.30;99.90
6443;DHT22;3254;47.372;8.512;2023-05-15T02:08:29;10.40;99.90
6443;DHT22;3254;47.372;8.512;2023-05-15T02:10:57;10.40;99.90
6443;DHT22;3254;47.372;8.512;2023-05-15T02:13:24;10.40;99.90
6443;DHT22;3254;47.372;8.512;2023-05-15T02:15:51;10.40;99.90
6443;DHT22;3254;47.372;8.512;2023-05-15T02:18:16;10.40;99.90
6443;DHT22;3254;47.372;8.512;2023-05-15T02:20:42;10.30;99.90
6443;DHT22;3254;47.372;8.512;2023-05-15T02:23:07;10.20;99.90
6443;DHT22;3254;47.372;8.512;2023-05-15T02:28:27;10.10;99.90
6443;DHT22;3254;47.372;8.512;2023-05-15T02:30:59;10.00;99.90
6443;DHT22;3254;47.372;8.512;2023-05-15T02:33:36;10.00;99.90
6443;DHT22;3254;47.372;8.512;2023-05-15T02:36:10;10.00;99.90
6443;DHT22;3254;47.372;8.512;2023-05-15T02:38:51;10.00;99.90
6443;DHT22;3254;47.372;8.512;2023-05-15T02:41:17;10.00;99.90
6443;DHT22;3254;47.372;8.512;2023-05-15T02:43:43;9.90;99.90
6443;DHT22;3254;47.372;8.512;2023-05-15T02:46:10;9.90;99.90
6443;DHT22;3254;47.372;8.512;2023-05-15T02:48:39;9.80;99.90
6443;DHT22;3254;47.372;8.512;2023-05-15T02:51:06;9.80;99.90
6443;DHT22;3254;47.372;8.512;2023-05-15T02:53:33;9.80;99.90
6443;DHT22;3254;47.372;8.512;2023-05-15T02:56:03;9.80;99.90
6443;DHT22;3254;47.372;8.512;2023-05-15T02:58:28;9.90;99.90
6443;DHT22;3254;47.372;8.512;2023-05-15T03:00:54;9.80;99.90
6443;DHT22;3254;47.372;8.512;2023-05-15T03:03:20;9.90;99.90
6443;DHT22;3254;47.372;8.512;2023-05-15T03:05:45;9.80;99.90
6443;DHT22;3254;47.372;8.512;2023-05-15T03:08:11;9.80;99.90
6443;DHT22;3254;47.372;8.512;2023-05-15T03:10:36;9.80;99.90
6443;DHT22;3254;47.372;8.512;2023-05-15T03:13:02;9.80;99.90
6443;DHT22;3254;47.372;8.512;2023-05-15T03:15:28;9.90;99.90
6443;DHT22;3254;47.372;8.512;2023-05-15T03:17:54;9.80;99.90
6443;DHT22;3254;47.372;8.512;2023-05-15T03:20:20;9.80;99.90
6443;DHT22;3254;47.372;8.512;2023-05-15T03:22:45;9.70;99.90
6443;DHT22;3254;47.372;8.512;2023-05-15T03:25:11;9.60;99.90
6443;DHT22;3254;47.372;8.512;2023-05-15T03:27:37;9.50;99.90
6443;DHT22;3254;47.372;8.512;2023-05-15T03:30:04;9.40;99.90
6443;DHT22;3254;47.372;8.512;2023-05-15T03:32:29;9.30;99.90
6443;DHT22;3254;47.372;8.512;2023-05-15T03:34:55;9.30;99.90
6443;DHT22;3254;47.372;8.512;2023-05-15T03:37:21;9.30;99.90
6443;DHT22;3254;47.372;8.512;2023-05-15T03:39:46;9.30;99.90
6443;DHT22;3254;47.372;8.512;2023-05-15T03:42:12;9.20;99.90
6443;DHT22;3254;47.372;8.512;2023-05-15T03:44:37;9.30;99.90
6443;DHT22;3254;47.372;8.512;2023-05-15T03:47:03;9.20;99.90
6443;DHT22;3254;47.372;8.512;2023-05-15T03:49:28;9.20;99.90
6443;DHT22;3254;47.372;8.512;2023-05-15T03:51:55;9.20;99.90
6443;DHT22;3254;47.372;8.512;2023-05-15T03:54:22;9.20;99.90
6443;DHT22;3254;47.372;8.512;2023-05-15T03:56:47;9.20;99.90
6443;DHT22;3254;47.372;8.512;2023-05-15T03:59:13;9.00;99.90
6443;DHT22;3254;47.372;8.512;2023-05-15T04:01:39;9.00;99.90
6443;DHT22;3254;47.372;8.512;2023-05-15T04:04:04;8.90;99.90
6443;DHT22;3254;47.372;8.512;2023-05-15T04:06:30;8.70;99.90
6443;DHT22;3254;47.372;8.512;2023-05-15T04:08:55;8.70;99.90
6443;DHT22;3254;47.372;8.512;2023-05-15T04:11:21;8.60;99.90
6443;DHT22;3254;47.372;8.512;2023-05-15T04:13:48;8.70;99.90
6443;DHT22;3254;47.372;8.512;2023-05-15T04:16:13;8.80;99.90
6443;DHT22;3254;47.372;8.512;2023-05-15T04:18:39;9.10;99.90
6443;DHT22;3254;47.372;8.512;2023-05-15T04:21:05;9.20;99.90
6443;DHT22;3254;47.372;8.512;2023-05-15T04:23:30;9.30;99.90
6443;DHT22;3254;47.372;8.512;2023-05-15T04:25:56;9.30;99.90
6443;DHT22;3254;47.372;8.512;2023-05-15T04:28:21;9.40;99.90
6443;DHT22;3254;47.372;8.512;2023-05-15T04:30:47;9.50;99.90
6443;DHT22;3254;47.372;8.512;2023-05-15T04:33:12;9.60;99.90
6443;DHT22;3254;47.372;8.512;2023-05-15T04:35:38;9.60;99.90
6443;DHT22;3254;47.372;8.512;2023-05-15T04:38:04;9.60;99.90
6443;DHT22;3254;47.372;8.512;2023-05-15T04:40:30;9.70;99.90
6443;DHT22;3254;47.372;8.512;2023-05-15T04:42:55;9.80;99.90
6443;DHT22;3254;47.372;8.512;2023-05-15T04:45:21;9.80;99.90
6443;DHT22;3254;47.372;8.512;2023-05-15T04:47:49;9.90;99.90
6443;DHT22;3254;47.372;8.512;2023-05-15T04:50:14;9.90;99.90
6443;DHT22;3254;47.372;8.512;2023-05-15T04:52:40;9.90;99.90
6443;DHT22;3254;47.372;8.512;2023-05-15T04:55:08;9.90;99.90
6443;DHT22;3254;47.372;8.512;2023-05-15T04:57:33;9.80;99.90
6443;DHT22;3254;47.372;8.512;2023-05-15T05:00:00;9.90;99.90
6443;DHT22;3254;47.372;8.512;2023-05-15T05:02:25;9.80;99.90
6443;DHT22;3254;47.372;8.512;2023-05-15T05:04:51;9.80;99.90
6443;DHT22;3254;47.372;8.512;2023-05-15T05:07:17;9.80;99.90
6443;DHT22;3254;47.372;8.512;2023-05-15T05:09:43;9.80;99.90
6443;DHT22;3254;47.372;8.512;2023-05-15T05:12:09;9.90;99.90
6443;DHT22;3254;47.372;8.512;2023-05-15T05:14:35;9.80;99.90
6443;DHT22;3254;47.372;8.512;2023-05-15T05:17:01;9.80;99.90
6443;DHT22;3254;47.372;8.512;2023-05-15T05:19:26;9.90;99.90
6443;DHT22;3254;47.372;8.512;2023-05-15T05:21:53;10.00;99.90
6443;DHT22;3254;47.372;8.512;2023-05-15T05:24:18;10.00;99.90
6443;DHT22;3254;47.372;8.512;2023-05-15T05:26:44;10.10;99.90
6443;DHT22;3254;47.372;8.512;2023-05-15T05:29:10;10.10;99.90
6443;DHT22;3254;47.372;8.512;2023-05-15T05:31:35;10.20;99.90
6443;DHT22;3254;47.372;8.512;2023-05-15T05:34:01;10.20;99.90
6443;DHT22;3254;47.372;8.512;2023-05-15T05:36:26;10.20;99.90
6443;DHT22;3254;47.372;8.512;2023-05-15T05:38:52;10.30;99.90
6443;DHT22;3254;47.372;8.512;2023-05-15T05:41:17;10.30;99.90
6443;DHT22;3254;47.372;8.512;2023-05-15T05:43:43;10.50;99.90
6443;DHT22;3254;47.372;8.512;2023-05-15T05:46:09;10.70;99.90
6443;DHT22;3254;47.372;8.512;2023-05-15T05:48:34;10.80;99.90
6443;DHT22;3254;47.372;8.512;2023-05-15T05:51:00;10.90;99.90
6443;DHT22;3254;47.372;8.512;2023-05-15T05:53:26;10.90;99.90
6443;DHT22;3254;47.372;8.512;2023-05-15T05:55:52;10.90;99.90
6443;DHT22;3254;47.372;8.512;2023-05-15T05:58:18;11.00;99.90
6443;DHT22;3254;47.372;8.512;2023-05-15T06:00:44;11.10;99.90
6443;DHT22;3254;47.372;8.512;2023-05-15T06:03:10;11.10;99.90
6443;DHT22;3254;47.372;8.512;2023-05-15T06:05:36;11.00;99.90
6443;DHT22;3254;47.372;8.512;2023-05-15T06:08:01;11.20;99.90
6443;DHT22;3254;47.372;8.512;2023-05-15T06:10:28;11.20;99.90
6443;DHT22;3254;47.372;8.512;2023-05-15T06:12:54;11.20;99.90
6443;DHT22;3254;47.372;8.512;2023-05-15T06:15:19;11.20;99.90
6443;DHT22;3254;47.372;8.512;2023-05-15T06:17:45;11.30;99.90
6443;DHT22;3254;47.372;8.512;2023-05-15T06:20:11;11.30;99.90
6443;DHT22;3254;47.372;8.512;2023-05-15T06:22:37;11.30;99.90
6443;DHT22;3254;47.372;8.512;2023-05-15T06:25:04;11.30;99.90
6443;DHT22;3254;47.372;8.512;2023-05-15T06:27:31;11.30;99.90
6443;DHT22;3254;47.372;8.512;2023-05-15T06:29:56;11.40;99.90
6443;DHT22;3254;47.372;8.512;2023-05-15T06:32:22;11.50;99.90
6443;DHT22;3254;47.372;8.512;2023-05-15T06:34:48;11.70;99.90
6443;DHT22;3254;47.372;8.512;2023-05-15T06:37:13;11.90;99.90
6443;DHT22;3254;47.372;8.512;2023-05-15T06:39:39;11.90;96.20
6443;DHT22;3254;47.372;8.512;2023-05-15T06:42:05;11.70;93.20
6443;DHT22;3254;47.372;8.512;2023-05-15T06:44:31;11.80;94.00
6443;DHT22;3254;47.372;8.512;2023-05-15T06:46:57;11.80;90.70
6443;DHT22;3254;47.372;8.512;2023-05-15T06:49:23;11.70;88.90
6443;DHT22;3254;47.372;8.512;2023-05-15T06:51:49;11.70;91.80
6443;DHT22;3254;47.372;8.512;2023-05-15T06:54:15;11.60;93.20
6443;DHT22;3254;47.372;8.512;2023-05-15T06:56:41;11.50;97.50
6443;DHT22;3254;47.372;8.512;2023-05-15T06:59:06;11.60;99.20
6443;DHT22;3254;47.372;8.512;2023-05-15T07:01:32;11.60;97.70
6443;DHT22;3254;47.372;8.512;2023-05-15T07:03:58;11.60;98.70
6443;DHT22;3254;47.372;8.512;2023-05-15T07:06:23;11.40;99.90
6443;DHT22;3254;47.372;8.512;2023-05-15T07:08:50;11.20;99.90
6443;DHT22;3254;47.372;8.512;2023-05-15T07:11:16;11.00;99.90
6443;DHT22;3254;47.372;8.512;2023-05-15T07:13:41;11.10;99.90
6443;DHT22;3254;47.372;8.512;2023-05-15T07:16:07;11.20;99.90
6443;DHT22;3254;47.372;8.512;2023-05-15T07:18:32;11.30;99.90
6443;DHT22;3254;47.372;8.512;2023-05-15T07:20:58;11.40;99.90
6443;DHT22;3254;47.372;8.512;2023-05-15T07:23:23;11.60;99.90
6443;DHT22;3254;47.372;8.512;2023-05-15T07:25:49;11.80;99.90
6443;DHT22;3254;47.372;8.512;2023-05-15T07:28:15;11.90;99.90
6443;DHT22;3254;47.372;8.512;2023-05-15T07:30:40;12.20;99.90
6443;DHT22;3254;47.372;8.512;2023-05-15T07:33:06;12.10;99.90
6443;DHT22;3254;47.372;8.512;2023-05-15T07:35:31;12.10;99.90
6443;DHT22;3254;47.372;8.512;2023-05-15T07:37:57;12.30;99.90
6443;DHT22;3254;47.372;8.512;2023-05-15T07:40:22;12.40;99.90
6443;DHT22;3254;47.372;8.512;2023-05-15T07:42:48;12.40;99.90
6443;DHT22;3254;47.372;8.512;2023-05-15T07:45:13;12.40;99.90
6443;DHT22;3254;47.372;8.512;2023-05-15T07:47:47;12.40;99.90
6443;DHT22;3254;47.372;8.512;2023-05-15T07:50:12;12.30;97.20
6443;DHT22;3254;47.372;8.512;2023-05-15T07:52:38;12.20;98.80
6443;DHT22;3254;47.372;8.512;2023-05-15T07:55:04;12.00;99.90
6443;DHT22;3254;47.372;8.512;2023-05-15T07:57:30;11.80;99.90
6443;DHT22;3254;47.372;8.512;2023-05-15T07:59:56;11.60;99.90
6443;DHT22;3254;47.372;8.512;2023-05-15T08:02:22;11.60;99.90
6443;DHT22;3254;47.372;8.512;2023-05-15T08:04:48;11.40;99.90
6443;DHT22;3254;47.372;8.512;2023-05-15T08:07:13;11.30;99.90
6443;DHT22;3254;47.372;8.512;2023-05-15T08:09:39;11.20;99.90
6443;DHT22;3254;47.372;8.512;2023-05-15T08:12:19;11.20;99.90
6443;DHT22;3254;47.372;8.512;2023-05-15T08:14:49;11.10;99.90
6443;DHT22;3254;47.372;8.512;2023-05-15T08:17:14;11.10;99.90
6443;DHT22;3254;47.372;8.512;2023-05-15T08:19:40;11.00;99.90
6443;DHT22;3254;47.372;8.512;2023-05-15T08:22:06;11.10;99.90
6443;DHT22;3254;47.372;8.512;2023-05-15T08:24:32;11.10;99.90
6443;DHT22;3254;47.372;8.512;2023-05-15T08:26:57;11.20;99.90
6443;DHT22;3254;47.372;8.512;2023-05-15T08:29:23;11.30;99.90
6443;DHT22;3254;47.372;8.512;2023-05-15T08:31:48;11.50;99.90
6443;DHT22;3254;47.372;8.512;2023-05-15T08:34:14;11.70;99.90
6443;DHT22;3254;47.372;8.512;2023-05-15T08:36:39;11.80;99.90
6443;DHT22;3254;47.372;8.512;2023-05-15T08:39:05;12.00;99.90
6443;DHT22;3254;47.372;8.512;2023-05-15T08:41:39;12.20;99.90
6443;DHT22;3254;47.372;8.512;2023-05-15T08:44:08;12.40;99.90
6443;DHT22;3254;47.372;8.512;2023-05-15T08:46:35;12.50;99.90
6443;DHT22;3254;47.372;8.512;2023-05-15T08:49:07;12.80;99.90
6443;DHT22;3254;47.372;8.512;2023-05-15T08:51:34;12.70;99.90
6443;DHT22;3254;47.372;8.512;2023-05-15T08:54:00;12.90;99.90
6443;DHT22;3254;47.372;8.512;2023-05-15T08:56:26;13.10;99.90
6443;DHT22;3254;47.372;8.512;2023-05-15T08:58:52;13.30;99.90
6443;DHT22;3254;47.372;8.512;2023-05-15T09:01:17;13.60;99.90
6443;DHT22;3254;47.372;8.512;2023-05-15T09:03:43;13.80;99.90
6443;DHT22;3254;47.372;8.512;2023-05-15T09:06:09;13.70;99.90
6443;DHT22;3254;47.372;8.512;2023-05-15T09:08:35;13.30;99.90
6443;DHT22;3254;47.372;8.512;2023-05-15T09:11:01;13.50;99.90
6443;DHT22;3254;47.372;8.512;2023-05-15T09:13:29;13.60;99.90
6443;DHT22;3254;47.372;8.512;2023-05-15T09:15:55;13.80;99.90
6443;DHT22;3254;47.372;8.512;2023-05-15T09:18:21;14.50;99.70
6443;DHT22;3254;47.372;8.512;2023-05-15T09:20:47;14.80;83.50
6443;DHT22;3254;47.372;8.512;2023-05-15T09:23:24;15.30;69.70
6443;DHT22;3254;47.372;8.512;2023-05-15T09:25:50;15.70;60.90
6443;DHT22;3254;47.372;8.512;2023-05-15T09:28:29;15.70;51.20
6443;DHT22;3254;47.372;8.512;2023-05-15T09:31:01;15.60;49.90
6443;DHT22;3254;47.372;8.512;2023-05-15T09:33:34;15.10;45.90
6443;DHT22;3254;47.372;8.512;2023-05-15T09:36:02;14.70;47.30
6443;DHT22;3254;47.372;8.512;2023-05-15T09:38:28;14.00;47.50
6443;DHT22;3254;47.372;8.512;2023-05-15T09:41:04;13.60;51.70
6443;DHT22;3254;47.372;8.512;2023-05-15T09:43:35;13.00;54.90
6443;DHT22;3254;47.372;8.512;2023-05-15T09:46:01;12.90;74.90
6443;DHT22;3254;47.372;8.512;2023-05-15T09:48:27;13.10;90.70
6443;DHT22;3254;47.372;8.512;2023-05-15T09:50:53;12.90;77.60
6443;DHT22;3254;47.372;8.512;2023-05-15T09:53:21;12.80;82.90
6443;DHT22;3254;47.372;8.512;2023-05-15T09:55:47;12.80;87.30
6443;DHT22;3254;47.372;8.512;2023-05-15T09:58:17;12.70;82.40
6443;DHT22;3254;47.372;8.512;2023-05-15T10:00:44;12.90;84.30
6443;DHT22;3254;47.372;8.512;2023-05-15T10:03:10;13.10;89.00
6443;DHT22;3254;47.372;8.512;2023-05-15T10:05:37;13.20;75.50
6443;DHT22;3254;47.372;8.512;2023-05-15T10:08:03;13.20;73.60
6443;DHT22;3254;47.372;8.512;2023-05-15T10:10:29;13.20;72.20
6443;DHT22;3254;47.372;8.512;2023-05-15T10:12:57;13.10;81.20
6443;DHT22;3254;47.372;8.512;2023-05-15T10:15:24;13.00;79.50
6443;DHT22;3254;47.372;8.512;2023-05-15T10:17:51;13.00;82.90
6443;DHT22;3254;47.372;8.512;2023-05-15T10:20:19;12.90;83.10
6443;DHT22;3254;47.372;8.512;2023-05-15T10:22:50;13.10;90.40
6443;DHT22;3254;47.372;8.512;2023-05-15T10:25:22;13.60;89.90
6443;DHT22;3254;47.372;8.512;2023-05-15T10:27:50;14.60;63.30
6443;DHT22;3254;47.372;8.512;2023-05-15T10:30:16;15.90;30.70
6443;DHT22;3254;47.372;8.512;2023-05-15T10:32:44;16.80;13.70
6443;DHT22;3254;47.372;8.512;2023-05-15T10:35:11;17.60;1.00
6443;DHT22;3254;47.372;8.512;2023-05-15T10:37:38;17.40;1.00
6443;DHT22;3254;47.372;8.512;2023-05-15T10:40:07;17.20;1.00
6443;DHT22;3254;47.372;8.512;2023-05-15T10:42:35;16.60;1.00
6443;DHT22;3254;47.372;8.512;2023-05-15T10:45:01;16.70;1.00
6443;DHT22;3254;47.372;8.512;2023-05-15T10:47:29;17.20;1.00
6443;DHT22;3254;47.372;8.512;2023-05-15T10:49:56;18.20;1.00
6443;DHT22;3254;47.372;8.512;2023-05-15T10:52:22;18.00;1.00
6443;DHT22;3254;47.372;8.512;2023-05-15T10:54:48;17.80;1.00
6443;DHT22;3254;47.372;8.512;2023-05-15T10:57:14;17.20;1.00
6443;DHT22;3254;47.372;8.512;2023-05-15T10:59:39;16.60;1.00
6443;DHT22;3254;47.372;8.512;2023-05-15T11:04:45;16.50;1.00
6443;DHT22;3254;47.372;8.512;2023-05-15T11:07:13;16.70;1.00
6443;DHT22;3254;47.372;8.512;2023-05-15T11:09:39;16.60;1.00
6443;DHT22;3254;47.372;8.512;2023-05-15T11:12:07;16.40;1.00
6443;DHT22;3254;47.372;8.512;2023-05-15T11:14:43;16.20;1.00
6443;DHT22;3254;47.372;8.512;2023-05-15T11:17:10;16.10;1.00
6443;DHT22;3254;47.372;8.512;2023-05-15T11:19:54;15.90;1.00
6443;DHT22;3254;47.372;8.512;2023-05-15T11:22:34;15.60;1.00
6443;DHT22;3254;47.372;8.512;2023-05-15T11:25:09;14.90;1.00
6443;DHT22;3254;47.372;8.512;2023-05-15T11:27:43;14.80;1.00
6443;DHT22;3254;47.372;8.512;2023-05-15T11:30:20;15.20;13.50
6443;DHT22;3254;47.372;8.512;2023-05-15T11:35:16;15.60;6.50
6443;DHT22;3254;47.372;8.512;2023-05-15T11:37:45;15.90;3.70
6443;DHT22;3254;47.372;8.512;2023-05-15T11:40:31;16.80;1.00
6443;DHT22;3254;47.372;8.512;2023-05-15T11:42:59;17.90;1.00
6443;DHT22;3254;47.372;8.512;2023-05-15T11:45:26;18.70;1.00
6443;DHT22;3254;47.372;8.512;2023-05-15T11:47:52;19.60;1.00
6443;DHT22;3254;47.372;8.512;2023-05-15T11:50:18;20.70;1.00
6443;DHT22;3254;47.372;8.512;2023-05-15T11:52:44;21.80;1.00
6443;DHT22;3254;47.372;8.512;2023-05-15T11:55:11;22.80;1.00
6443;DHT22;3254;47.372;8.512;2023-05-15T11:57:37;23.80;1.00
6443;DHT22;3254;47.372;8.512;2023-05-15T12:00:03;23.40;1.00
6443;DHT22;3254;47.372;8.512;2023-05-15T12:02:30;23.20;1.00
6443;DHT22;3254;47.372;8.512;2023-05-15T12:04:56;23.50;1.00
6443;DHT22;3254;47.372;8.512;2023-05-15T12:07:21;24.00;1.00
6443;DHT22;3254;47.372;8.512;2023-05-15T12:09:50;25.20;1.00
6443;DHT22;3254;47.372;8.512;2023-05-15T12:12:19;25.80;1.00
6443;DHT22;3254;47.372;8.512;2023-05-15T12:14:45;26.10;1.00
6443;DHT22;3254;47.372;8.512;2023-05-15T12:17:11;27.40;1.00
6443;DHT22;3254;47.372;8.512;2023-05-15T12:19:37;27.40;1.00
6443;DHT22;3254;47.372;8.512;2023-05-15T12:22:06;27.50;1.00
6443;DHT22;3254;47.372;8.512;2023-05-15T12:24:32;27.80;1.00
6443;DHT22;3254;47.372;8.512;2023-05-15T12:27:01;28.70;1.00
6443;DHT22;3254;47.372;8.512;2023-05-15T12:29:27;28.30;1.00
6443;DHT22;3254;47.372;8.512;2023-05-15T12:31:53;28.60;1.00
6443;DHT22;3254;47.372;8.512;2023-05-15T12:34:20;28.30;1.00
6443;DHT22;3254;47.372;8.512;2023-05-15T12:36:45;27.50;1.00
6443;DHT22;3254;47.372;8.512;2023-05-15T12:39:11;27.50;1.00
6443;DHT22;3254;47.372;8.512;2023-05-15T12:41:37;27.20;1.00
6443;DHT22;3254;47.372;8.512;2023-05-15T12:44:04;27.50;1.00
6443;DHT22;3254;47.372;8.512;2023-05-15T12:46:31;27.20;1.00
6443;DHT22;3254;47.372;8.512;2023-05-15T12:49:00;27.00;1.00
6443;DHT22;3254;47.372;8.512;2023-05-15T12:51:26;27.80;1.00
6443;DHT22;3254;47.372;8.512;2023-05-15T12:53:55;28.10;1.00
6443;DHT22;3254;47.372;8.512;2023-05-15T12:56:22;27.90;1.00
6443;DHT22;3254;47.372;8.512;2023-05-15T12:58:48;28.70;1.00
6443;DHT22;3254;47.372;8.512;2023-05-15T13:01:14;28.30;1.00
6443;DHT22;3254;47.372;8.512;2023-05-15T13:03:43;28.50;1.00
6443;DHT22;3254;47.372;8.512;2023-05-15T13:06:09;29.10;1.00
6443;DHT22;3254;47.372;8.512;2023-05-15T13:08:39;28.80;1.00
6443;DHT22;3254;47.372;8.512;2023-05-15T13:11:10;27.70;1.00
6443;DHT22;3254;47.372;8.512;2023-05-15T13:13:46;28.10;1.00
6443;DHT22;3254;47.372;8.512;2023-05-15T13:16:23;27.60;1.00
6443;DHT22;3254;47.372;8.512;2023-05-15T13:18:48;27.80;1.00
6443;DHT22;3254;47.372;8.512;2023-05-15T13:21:14;28.80;1.00
6443;DHT22;3254;47.372;8.512;2023-05-15T13:23:40;28.50;1.00
6443;DHT22;3254;47.372;8.512;2023-05-15T13:26:05;29.80;1.00
6443;DHT22;3254;47.372;8.512;2023-05-15T13:28:32;29.10;1.00
6443;DHT22;3254;47.372;8.512;2023-05-15T13:30:57;27.40;1.00
6443;DHT22;3254;47.372;8.512;2023-05-15T13:33:23;26.70;1.00
6443;DHT22;3254;47.372;8.512;2023-05-15T13:35:49;26.30;1.00
6443;DHT22;3254;47.372;8.512;2023-05-15T13:38:16;26.60;1.00
6443;DHT22;3254;47.372;8.512;2023-05-15T13:40:41;27.30;1.00
6443;DHT22;3254;47.372;8.512;2023-05-15T13:43:07;27.80;1.00
6443;DHT22;3254;47.372;8.512;2023-05-15T13:45:32;27.50;1.00
6443;DHT22;3254;47.372;8.512;2023-05-15T13:47:58;26.10;1.00
6443;DHT22;3254;47.372;8.512;2023-05-15T13:50:24;25.10;1.00
6443;DHT22;3254;47.372;8.512;2023-05-15T13:52:49;23.90;1.00
6443;DHT22;3254;47.372;8.512;2023-05-15T13:55:15;23.70;1.00
6443;DHT22;3254;47.372;8.512;2023-05-15T13:57:42;24.30;1.00
6443;DHT22;3254;47.372;8.512;2023-05-15T14:00:09;24.30;1.00
6443;DHT22;3254;47.372;8.512;2023-05-15T14:02:40;24.70;1.00
6443;DHT22;3254;47.372;8.512;2023-05-15T14:05:06;24.30;1.00
6443;DHT22;3254;47.372;8.512;2023-05-15T14:07:32;24.10;1.00
6443;DHT22;3254;47.372;8.512;2023-05-15T14:09:58;23.90;1.00
6443;DHT22;3254;47.372;8.512;2023-05-15T14:12:23;23.70;1.00
6443;DHT22;3254;47.372;8.512;2023-05-15T14:14:49;23.70;1.00
6443;DHT22;3254;47.372;8.512;2023-05-15T14:17:15;23.50;1.00
6443;DHT22;3254;47.372;8.512;2023-05-15T14:19:41;23.10;1.00
6443;DHT22;3254;47.372;8.512;2023-05-15T14:22:07;22.90;1.00
6443;DHT22;3254;47.372;8.512;2023-05-15T14:24:33;22.40;1.00
6443;DHT22;3254;47.372;8.512;2023-05-15T14:26:59;21.70;1.00
6443;DHT22;3254;47.372;8.512;2023-05-15T14:29:24;21.00;1.00
6443;DHT22;3254;47.372;8.512;2023-05-15T14:31:50;20.50;1.00
6443;DHT22;3254;47.372;8.512;2023-05-15T14:34:17;19.80;1.00
6443;DHT22;3254;47.372;8.512;2023-05-15T14:36:43;19.50;1.00
6443;DHT22;3254;47.372;8.512;2023-05-15T14:39:09;19.00;1.00
6443;DHT22;3254;47.372;8.512;2023-05-15T14:41:35;18.60;1.00
6443;DHT22;3254;47.372;8.512;2023-05-15T14:44:00;18.30;1.00
6443;DHT22;3254;47.372;8.512;2023-05-15T14:46:26;18.00;1.00
6443;DHT22;3254;47.372;8.512;2023-05-15T14:48:51;17.90;1.00
6443;DHT22;3254;47.372;8.512;2023-05-15T14:51:17;17.80;1.00
6443;DHT22;3254;47.372;8.512;2023-05-15T14:53:42;17.60;1.00
6443;DHT22;3254;47.372;8.512;2023-05-15T14:56:09;16.40;1.00
6443;DHT22;3254;47.372;8.512;2023-05-15T14:58:34;15.10;1.00
6443;DHT22;3254;47.372;8.512;2023-05-15T15:01:01;14.20;1.00
6443;DHT22;3254;47.372;8.512;2023-05-15T15:03:26;13.50;1.00
6443;DHT22;3254;47.372;8.512;2023-05-15T15:05:52;12.60;74.90
6443;DHT22;3254;47.372;8.512;2023-05-15T15:08:17;12.10;99.90
6443;DHT22;3254;47.372;8.512;2023-05-15T15:10:44;12.10;99.90
6443;DHT22;3254;47.372;8.512;2023-05-15T15:13:10;12.10;99.90
6443;DHT22;3254;47.372;8.512;2023-05-15T15:15:37;12.10;99.90
6443;DHT22;3254;47.372;8.512;2023-05-15T15:18:03;11.80;99.90
6443;DHT22;3254;47.372;8.512;2023-05-15T15:20:29;11.60;99.90
6443;DHT22;3254;47.372;8.512;2023-05-15T15:22:55;11.60;99.90
6443;DHT22;3254;47.372;8.512;2023-05-15T15:25:21;11.60;99.90
6443;DHT22;3254;47.372;8.512;2023-05-15T15:27:47;11.80;99.90
6443;DHT22;3254;47.372;8.512;2023-05-15T15:30:14;11.80;99.90
6443;DHT22;3254;47.372;8.512;2023-05-15T15:32:40;12.00;99.90
6443;DHT22;3254;47.372;8.512;2023-05-15T15:35:06;12.10;99.90
6443;DHT22;3254;47.372;8.512;2023-05-15T15:37:33;12.10;99.90
6443;DHT22;3254;47.372;8.512;2023-05-15T15:40:00;12.10;99.90
6443;DHT22;3254;47.372;8.512;2023-05-15T15:42:27;12.10;99.90
6443;DHT22;3254;47.372;8.512;2023-05-15T15:44:53;12.20;99.90
6443;DHT22;3254;47.372;8.512;2023-05-15T15:47:19;12.30;99.90
6443;DHT22;3254;47.372;8.512;2023-05-15T15:49:45;12.50;99.90
6443;DHT22;3254;47.372;8.512;2023-05-15T15:52:11;12.70;99.90
6443;DHT22;3254;47.372;8.512;2023-05-15T15:54:36;12.70;99.90
6443;DHT22;3254;47.372;8.512;2023-05-15T15:57:03;12.70;99.90
6443;DHT22;3254;47.372;8.512;2023-05-15T15:59:28;12.70;99.90
6443;DHT22;3254;47.372;8.512;2023-05-15T16:01:54;12.70;99.90
6443;DHT22;3254;47.372;8.512;2023-05-15T16:04:20;12.60;99.90
6443;DHT22;3254;47.372;8.512;2023-05-15T16:06:46;12.70;99.90
6443;DHT22;3254;47.372;8.512;2023-05-15T16:09:11;12.60;99.90
6443;DHT22;3254;47.372;8.512;2023-05-15T16:11:37;12.60;99.90
6443;DHT22;3254;47.372;8.512;2023-05-15T16:14:02;12.50;99.90
6443;DHT22;3254;47.372;8.512;2023-05-15T16:16:28;12.20;95.00
6443;DHT22;3254;47.372;8.512;2023-05-15T16:18:54;12.30;99.90
6443;DHT22;3254;47.372;8.512;2023-05-15T16:21:20;12.50;99.90